sensor_id;sensor_type;location;lat;lon;timestamp;P1;durP1;ratioP1;P2;durP2;ratioP2
74162;SDS011;62515;52.758;5.076;2022-09-09T00:00:28;8.82;;;3.53;;
74162;SDS011;62515;52.758;5.076;2022-09-09T00:03:01;7.10;;;3.40;;
74162;SDS011;62515;52.758;5.076;2022-09-09T00:05:33;8.15;;;3.60;;
74162;SDS011;62515;52.758;5.076;2022-09-09T00:08:07;7.15;;;3.88;;
74162;SDS011;62515;52.758;5.076;2022-09-09T00:10:44;7.45;;;3.83;;
74162;SDS011;62515;52.758;5.076;2022-09-09T00:13:21;8.60;;;4.13;;
74162;SDS011;62515;52.758;5.076;2022-09-09T00:15:54;11.95;;;4.55;;
74162;SDS011;62515;52.758;5.076;2022-09-09T00:18:25;10.32;;;5.00;;
74162;SDS011;62515;52.758;5.076;2022-09-09T00:20:57;8.63;;;4.90;;
74162;SDS011;62515;52.758;5.076;2022-09-09T00:23:30;8.25;;;4.50;;
74162;SDS011;62515;52.758;5.076;2022-09-09T00:26:02;12.40;;;5.03;;
74162;SDS011;62515;52.758;5.076;2022-09-09T00:28:38;8.02;;;5.05;;
74162;SDS011;62515;52.758;5.076;2022-09-09T00:31:11;12.13;;;5.82;;
74162;SDS011;62515;52.758;5.076;2022-09-09T00:33:40;12.15;;;5.90;;
74162;SDS011;62515;52.758;5.076;2022-09-09T00:36:12;12.98;;;6.22;;
74162;SDS011;62515;52.758;5.076;2022-09-09T00:38:42;18.20;;;6.10;;
74162;SDS011;62515;52.758;5.076;2022-09-09T00:41:14;11.65;;;6.32;;
74162;SDS011;62515;52.758;5.076;2022-09-09T00:43:52;11.75;;;6.10;;
74162;SDS011;62515;52.758;5.076;2022-09-09T00:46:32;15.18;;;6.82;;
74162;SDS011;62515;52.758;5.076;2022-09-09T00:49:13;10.77;;;6.57;;
74162;SDS011;62515;52.758;5.076;2022-09-09T00:51:48;10.68;;;6.13;;
74162;SDS011;62515;52.758;5.076;2022-09-09T00:54:33;10.80;;;5.75;;
74162;SDS011;62515;52.758;5.076;2022-09-09T00:57:15;14.63;;;6.53;;
74162;SDS011;62515;52.758;5.076;2022-09-09T00:59:55;10.18;;;5.95;;
74162;SDS011;62515;52.758;5.076;2022-09-09T01:02:26;11.30;;;5.63;;
74162;SDS011;62515;52.758;5.076;2022-09-09T01:04:56;12.45;;;6.20;;
74162;SDS011;62515;52.758;5.076;2022-09-09T01:07:29;11.20;;;5.60;;
74162;SDS011;62515;52.758;5.076;2022-09-09T01:09:59;9.77;;;5.32;;
74162;SDS011;62515;52.758;5.076;2022-09-09T01:12:34;11.50;;;5.97;;
74162;SDS011;62515;52.758;5.076;2022-09-09T01:15:12;8.88;;;5.18;;
74162;SDS011;62515;52.758;5.076;2022-09-09T01:17:50;12.10;;;6.05;;
74162;SDS011;62515;52.758;5.076;2022-09-09T01:20:25;10.15;;;5.38;;
74162;SDS011;62515;52.758;5.076;2022-09-09T01:23:03;13.35;;;6.13;;
74162;SDS011;62515;52.758;5.076;2022-09-09T01:28:41;11.57;;;5.07;;
74162;SDS011;62515;52.758;5.076;2022-09-09T01:31:14;11.90;;;5.45;;
74162;SDS011;62515;52.758;5.076;2022-09-09T01:33:45;16.65;;;5.32;;
74162;SDS011;62515;52.758;5.076;2022-09-09T01:36:14;15.10;;;5.43;;
74162;SDS011;62515;52.758;5.076;2022-09-09T01:38:50;11.10;;;5.47;;
74162;SDS011;62515;52.758;5.076;2022-09-09T01:41:19;7.70;;;5.07;;
74162;SDS011;62515;52.758;5.076;2022-09-09T01:43:53;8.68;;;5.50;;
74162;SDS011;62515;52.758;5.076;2022-09-09T01:46:22;9.05;;;5.10;;
74162;SDS011;62515;52.758;5.076;2022-09-09T01:48:50;9.05;;;4.75;;
74162;SDS011;62515;52.758;5.076;2022-09-09T01:51:19;10.98;;;5.22;;
74162;SDS011;62515;52.758;5.076;2022-09-09T01:53:47;10.00;;;4.95;;
74162;SDS011;62515;52.758;5.076;2022-09-09T01:56:21;10.75;;;5.25;;
74162;SDS011;62515;52.758;5.076;2022-09-09T01:58:59;9.75;;;4.78;;
74162;SDS011;62515;52.758;5.076;2022-09-09T02:01:38;9.68;;;4.93;;
74162;SDS011;62515;52.758;5.076;2022-09-09T02:04:18;14.35;;;5.88;;
74162;SDS011;62515;52.758;5.076;2022-09-09T02:06:55;13.63;;;5.35;;
74162;SDS011;62515;52.758;5.076;2022-09-09T02:09:28;11.95;;;6.32;;
74162;SDS011;62515;52.758;5.076;2022-09-09T02:11:59;15.40;;;6.32;;
74162;SDS011;62515;52.758;5.076;2022-09-09T02:14:39;16.05;;;6.55;;
74162;SDS011;62515;52.758;5.076;2022-09-09T02:17:09;15.02;;;6.72;;
74162;SDS011;62515;52.758;5.076;2022-09-09T02:22:39;11.43;;;6.65;;
74162;SDS011;62515;52.758;5.076;2022-09-09T02:25:12;16.55;;;7.25;;
74162;SDS011;62515;52.758;5.076;2022-09-09T02:27:43;13.32;;;7.32;;
74162;SDS011;62515;52.758;5.076;2022-09-09T02:30:13;16.35;;;7.28;;
74162;SDS011;62515;52.758;5.076;2022-09-09T02:32:48;18.75;;;8.30;;
74162;SDS011;62515;52.758;5.076;2022-09-09T02:35:21;21.38;;;8.63;;
74162;SDS011;62515;52.758;5.076;2022-09-09T02:37:51;18.55;;;8.57;;
74162;SDS011;62515;52.758;5.076;2022-09-09T02:40:22;17.23;;;9.23;;
74162;SDS011;62515;52.758;5.076;2022-09-09T02:42:58;16.63;;;8.77;;
74162;SDS011;62515;52.758;5.076;2022-09-09T02:45:31;20.02;;;8.82;;
74162;SDS011;62515;52.758;5.076;2022-09-09T02:48:04;15.63;;;9.30;;
74162;SDS011;62515;52.758;5.076;2022-09-09T02:50:39;16.85;;;9.63;;
74162;SDS011;62515;52.758;5.076;2022-09-09T02:53:14;19.42;;;9.80;;
74162;SDS011;62515;52.758;5.076;2022-09-09T02:55:46;20.15;;;9.10;;
74162;SDS011;62515;52.758;5.076;2022-09-09T02:58:21;18.83;;;10.75;;
74162;SDS011;62515;52.758;5.076;2022-09-09T03:00:59;20.35;;;10.20;;
74162;SDS011;62515;52.758;5.076;2022-09-09T03:03:30;23.63;;;11.02;;
74162;SDS011;62515;52.758;5.076;2022-09-09T03:06:00;26.95;;;11.80;;
74162;SDS011;62515;52.758;5.076;2022-09-09T03:08:27;26.67;;;11.57;;
74162;SDS011;62515;52.758;5.076;2022-09-09T03:10:57;18.88;;;10.60;;
74162;SDS011;62515;52.758;5.076;2022-09-09T03:13:32;22.08;;;10.93;;
74162;SDS011;62515;52.758;5.076;2022-09-09T03:15:59;24.58;;;12.10;;
74162;SDS011;62515;52.758;5.076;2022-09-09T03:18:29;25.80;;;12.82;;
74162;SDS011;62515;52.758;5.076;2022-09-09T03:20:57;29.02;;;12.95;;
74162;SDS011;62515;52.758;5.076;2022-09-09T03:25:53;31.58;;;14.18;;
74162;SDS011;62515;52.758;5.076;2022-09-09T03:28:30;30.30;;;14.45;;
74162;SDS011;62515;52.758;5.076;2022-09-09T03:31:00;26.85;;;14.73;;
74162;SDS011;62515;52.758;5.076;2022-09-09T03:33:32;26.30;;;15.07;;
74162;SDS011;62515;52.758;5.076;2022-09-09T03:36:01;32.80;;;16.17;;
74162;SDS011;62515;52.758;5.076;2022-09-09T03:38:28;36.25;;;16.02;;
74162;SDS011;62515;52.758;5.076;2022-09-09T03:40:56;29.58;;;15.43;;
74162;SDS011;62515;52.758;5.076;2022-09-09T03:43:27;35.90;;;17.60;;
74162;SDS011;62515;52.758;5.076;2022-09-09T03:45:56;33.28;;;17.10;;
74162;SDS011;62515;52.758;5.076;2022-09-09T03:48:25;34.97;;;17.08;;
74162;SDS011;62515;52.758;5.076;2022-09-09T03:50:55;33.30;;;16.92;;
74162;SDS011;62515;52.758;5.076;2022-09-09T03:53:29;37.33;;;18.40;;
74162;SDS011;62515;52.758;5.076;2022-09-09T03:55:56;40.60;;;19.33;;
74162;SDS011;62515;52.758;5.076;2022-09-09T03:58:28;34.08;;;16.98;;
74162;SDS011;62515;52.758;5.076;2022-09-09T04:01:08;34.22;;;16.88;;
74162;SDS011;62515;52.758;5.076;2022-09-09T04:03:37;35.25;;;17.15;;
74162;SDS011;62515;52.758;5.076;2022-09-09T04:06:06;35.88;;;18.67;;
74162;SDS011;62515;52.758;5.076;2022-09-09T04:08:34;36.65;;;16.48;;
74162;SDS011;62515;52.758;5.076;2022-09-09T04:11:03;35.15;;;16.65;;
74162;SDS011;62515;52.758;5.076;2022-09-09T04:13:33;42.13;;;19.15;;
74162;SDS011;62515;52.758;5.076;2022-09-09T04:16:01;36.75;;;16.08;;
74162;SDS011;62515;52.758;5.076;2022-09-09T04:18:33;37.22;;;16.45;;
74162;SDS011;62515;52.758;5.076;2022-09-09T04:21:02;35.55;;;16.23;;
74162;SDS011;62515;52.758;5.076;2022-09-09T04:23:32;37.55;;;15.02;;
74162;SDS011;62515;52.758;5.076;2022-09-09T04:26:00;37.40;;;14.07;;
74162;SDS011;62515;52.758;5.076;2022-09-09T04:28:30;29.27;;;13.77;;
74162;SDS011;62515;52.758;5.076;2022-09-09T04:31:03;23.25;;;12.25;;
74162;SDS011;62515;52.758;5.076;2022-09-09T04:33:33;30.42;;;13.02;;
74162;SDS011;62515;52.758;5.076;2022-09-09T04:36:06;28.17;;;13.93;;
74162;SDS011;62515;52.758;5.076;2022-09-09T04:38:34;32.67;;;12.85;;
74162;SDS011;62515;52.758;5.076;2022-09-09T04:41:01;29.63;;;11.98;;
74162;SDS011;62515;52.758;5.076;2022-09-09T04:43:30;27.98;;;11.40;;
74162;SDS011;62515;52.758;5.076;2022-09-09T04:45:58;28.50;;;10.75;;
74162;SDS011;62515;52.758;5.076;2022-09-09T04:48:26;23.85;;;9.98;;
74162;SDS011;62515;52.758;5.076;2022-09-09T04:50:56;24.40;;;9.90;;
74162;SDS011;62515;52.758;5.076;2022-09-09T04:53:24;23.20;;;9.85;;
74162;SDS011;62515;52.758;5.076;2022-09-09T04:55:52;20.83;;;8.93;;
74162;SDS011;62515;52.758;5.076;2022-09-09T04:58:29;21.75;;;9.07;;
74162;SDS011;62515;52.758;5.076;2022-09-09T05:01:02;27.45;;;9.73;;
74162;SDS011;62515;52.758;5.076;2022-09-09T05:03:30;21.88;;;9.32;;
74162;SDS011;62515;52.758;5.076;2022-09-09T05:06:03;20.52;;;9.05;;
74162;SDS011;62515;52.758;5.076;2022-09-09T05:08:35;21.50;;;9.05;;
74162;SDS011;62515;52.758;5.076;2022-09-09T05:11:03;21.67;;;9.07;;
74162;SDS011;62515;52.758;5.076;2022-09-09T05:13:31;20.45;;;8.48;;
74162;SDS011;62515;52.758;5.076;2022-09-09T05:15:58;18.05;;;8.07;;
74162;SDS011;62515;52.758;5.076;2022-09-09T05:18:25;15.90;;;7.85;;
74162;SDS011;62515;52.758;5.076;2022-09-09T05:20:58;22.45;;;8.00;;
74162;SDS011;62515;52.758;5.076;2022-09-09T05:23:27;17.98;;;8.02;;
74162;SDS011;62515;52.758;5.076;2022-09-09T05:25:55;12.25;;;7.07;;
74162;SDS011;62515;52.758;5.076;2022-09-09T05:28:23;14.82;;;6.93;;
74162;SDS011;62515;52.758;5.076;2022-09-09T05:30:55;12.77;;;6.70;;
74162;SDS011;62515;52.758;5.076;2022-09-09T05:33:24;17.63;;;6.97;;
74162;SDS011;62515;52.758;5.076;2022-09-09T05:35:58;13.07;;;6.55;;
74162;SDS011;62515;52.758;5.076;2022-09-09T05:38:27;18.88;;;5.78;;
74162;SDS011;62515;52.758;5.076;2022-09-09T05:40:55;12.43;;;5.80;;
74162;SDS011;62515;52.758;5.076;2022-09-09T05:43:23;10.50;;;5.35;;
74162;SDS011;62515;52.758;5.076;2022-09-09T05:45:58;15.88;;;5.78;;
74162;SDS011;62515;52.758;5.076;2022-09-09T05:48:28;12.18;;;5.15;;
74162;SDS011;62515;52.758;5.076;2022-09-09T05:50:56;12.05;;;5.75;;
74162;SDS011;62515;52.758;5.076;2022-09-09T05:53:23;12.80;;;5.30;;
74162;SDS011;62515;52.758;5.076;2022-09-09T05:55:58;9.38;;;4.32;;
74162;SDS011;62515;52.758;5.076;2022-09-09T05:58:27;10.63;;;5.03;;
74162;SDS011;62515;52.758;5.076;2022-09-09T06:00:59;11.65;;;4.80;;
74162;SDS011;62515;52.758;5.076;2022-09-09T06:03:27;10.18;;;3.92;;
74162;SDS011;62515;52.758;5.076;2022-09-09T06:05:57;7.70;;;3.72;;
74162;SDS011;62515;52.758;5.076;2022-09-09T06:08:26;9.32;;;3.90;;
74162;SDS011;62515;52.758;5.076;2022-09-09T06:11:00;9.70;;;4.05;;
74162;SDS011;62515;52.758;5.076;2022-09-09T06:13:29;7.82;;;3.08;;
74162;SDS011;62515;52.758;5.076;2022-09-09T06:15:57;9.65;;;3.22;;
74162;SDS011;62515;52.758;5.076;2022-09-09T06:18:25;9.35;;;3.05;;
74162;SDS011;62515;52.758;5.076;2022-09-09T06:20:53;5.82;;;3.30;;
74162;SDS011;62515;52.758;5.076;2022-09-09T06:23:22;7.43;;;2.55;;
74162;SDS011;62515;52.758;5.076;2022-09-09T06:25:59;7.47;;;3.22;;
74162;SDS011;62515;52.758;5.076;2022-09-09T06:28:29;8.48;;;2.80;;
74162;SDS011;62515;52.758;5.076;2022-09-09T06:30:59;8.35;;;2.75;;
74162;SDS011;62515;52.758;5.076;2022-09-09T06:33:30;4.78;;;3.08;;
74162;SDS011;62515;52.758;5.076;2022-09-09T06:35:57;6.72;;;2.53;;
74162;SDS011;62515;52.758;5.076;2022-09-09T06:38:24;9.52;;;2.63;;
74162;SDS011;62515;52.758;5.076;2022-09-09T06:40:52;6.70;;;2.40;;
74162;SDS011;62515;52.758;5.076;2022-09-09T06:45:54;7.75;;;2.58;;
74162;SDS011;62515;52.758;5.076;2022-09-09T06:48:21;6.07;;;2.63;;
74162;SDS011;62515;52.758;5.076;2022-09-09T06:50:48;8.60;;;3.20;;
74162;SDS011;62515;52.758;5.076;2022-09-09T06:53:17;5.10;;;2.60;;
74162;SDS011;62515;52.758;5.076;2022-09-09T06:55:46;8.82;;;2.50;;
74162;SDS011;62515;52.758;5.076;2022-09-09T06:58:13;4.80;;;2.47;;
74162;SDS011;62515;52.758;5.076;2022-09-09T07:00:41;5.07;;;2.03;;
74162;SDS011;62515;52.758;5.076;2022-09-09T07:03:09;6.32;;;2.22;;
74162;SDS011;62515;52.758;5.076;2022-09-09T07:05:36;6.88;;;2.70;;
74162;SDS011;62515;52.758;5.076;2022-09-09T07:08:03;9.95;;;2.60;;
74162;SDS011;62515;52.758;5.076;2022-09-09T07:10:30;7.10;;;2.42;;
74162;SDS011;62515;52.758;5.076;2022-09-09T07:12:57;8.65;;;2.67;;
74162;SDS011;62515;52.758;5.076;2022-09-09T07:15:24;5.57;;;2.40;;
74162;SDS011;62515;52.758;5.076;2022-09-09T07:17:54;8.20;;;3.15;;
74162;SDS011;62515;52.758;5.076;2022-09-09T07:20:21;6.75;;;2.78;;
74162;SDS011;62515;52.758;5.076;2022-09-09T07:22:49;9.80;;;3.20;;
74162;SDS011;62515;52.758;5.076;2022-09-09T07:25:16;10.18;;;3.35;;
74162;SDS011;62515;52.758;5.076;2022-09-09T07:27:45;6.68;;;2.67;;
74162;SDS011;62515;52.758;5.076;2022-09-09T07:30:12;11.65;;;3.33;;
74162;SDS011;62515;52.758;5.076;2022-09-09T07:32:50;11.85;;;3.50;;
74162;SDS011;62515;52.758;5.076;2022-09-09T07:35:19;12.63;;;3.70;;
74162;SDS011;62515;52.758;5.076;2022-09-09T07:37:46;13.30;;;4.20;;
74162;SDS011;62515;52.758;5.076;2022-09-09T07:40:18;9.95;;;4.05;;
74162;SDS011;62515;52.758;5.076;2022-09-09T07:42:47;8.35;;;3.78;;
74162;SDS011;62515;52.758;5.076;2022-09-09T07:45:14;7.43;;;3.45;;
74162;SDS011;62515;52.758;5.076;2022-09-09T07:47:41;11.57;;;4.35;;
74162;SDS011;62515;52.758;5.076;2022-09-09T07:50:08;10.45;;;3.92;;
74162;SDS011;62515;52.758;5.076;2022-09-09T07:52:37;8.80;;;3.78;;
74162;SDS011;62515;52.758;5.076;2022-09-09T07:55:05;8.27;;;4.25;;
74162;SDS011;62515;52.758;5.076;2022-09-09T07:57:32;9.88;;;4.05;;
74162;SDS011;62515;52.758;5.076;2022-09-09T08:00:00;10.45;;;4.07;;
74162;SDS011;62515;52.758;5.076;2022-09-09T08:02:27;7.35;;;3.58;;
74162;SDS011;62515;52.758;5.076;2022-09-09T08:04:56;10.52;;;4.00;;
74162;SDS011;62515;52.758;5.076;2022-09-09T08:07:23;8.57;;;4.00;;
74162;SDS011;62515;52.758;5.076;2022-09-09T08:09:54;13.50;;;4.72;;
74162;SDS011;62515;52.758;5.076;2022-09-09T08:12:27;8.88;;;4.35;;
74162;SDS011;62515;52.758;5.076;2022-09-09T08:14:55;11.05;;;4.15;;
74162;SDS011;62515;52.758;5.076;2022-09-09T08:17:26;11.90;;;4.47;;
74162;SDS011;62515;52.758;5.076;2022-09-09T08:19:53;13.75;;;4.40;;
74162;SDS011;62515;52.758;5.076;2022-09-09T08:22:25;13.45;;;4.63;;
74162;SDS011;62515;52.758;5.076;2022-09-09T08:24:55;8.57;;;3.72;;
74162;SDS011;62515;52.758;5.076;2022-09-09T08:27:22;7.63;;;4.22;;
74162;SDS011;62515;52.758;5.076;2022-09-09T08:29:52;7.80;;;4.60;;
74162;SDS011;62515;52.758;5.076;2022-09-09T08:32:19;8.55;;;4.15;;
74162;SDS011;62515;52.758;5.076;2022-09-09T08:34:46;8.10;;;3.70;;
74162;SDS011;62515;52.758;5.076;2022-09-09T08:37:21;10.35;;;4.43;;
74162;SDS011;62515;52.758;5.076;2022-09-09T08:39:48;8.73;;;4.10;;
74162;SDS011;62515;52.758;5.076;2022-09-09T08:42:27;10.05;;;4.53;;
74162;SDS011;62515;52.758;5.076;2022-09-09T08:48:03;9.70;;;4.65;;
74162;SDS011;62515;52.758;5.076;2022-09-09T08:50:38;11.07;;;4.03;;
74162;SDS011;62515;52.758;5.076;2022-09-09T08:53:16;12.85;;;4.30;;
74162;SDS011;62515;52.758;5.076;2022-09-09T08:55:47;8.60;;;3.95;;
74162;SDS011;62515;52.758;5.076;2022-09-09T08:58:21;10.80;;;4.32;;
74162;SDS011;62515;52.758;5.076;2022-09-09T09:00:57;12.25;;;3.95;;
74162;SDS011;62515;52.758;5.076;2022-09-09T09:03:43;7.25;;;3.08;;
74162;SDS011;62515;52.758;5.076;2022-09-09T09:06:28;8.82;;;3.70;;
74162;SDS011;62515;52.758;5.076;2022-09-09T09:11:38;11.52;;;3.42;;
74162;SDS011;62515;52.758;5.076;2022-09-09T09:14:10;5.88;;;2.85;;
74162;SDS011;62515;52.758;5.076;2022-09-09T09:16:47;8.55;;;3.22;;
74162;SDS011;62515;52.758;5.076;2022-09-09T09:19:17;8.30;;;3.30;;
74162;SDS011;62515;52.758;5.076;2022-09-09T09:21:48;6.43;;;2.97;;
74162;SDS011;62515;52.758;5.076;2022-09-09T09:24:20;8.32;;;3.25;;
74162;SDS011;62515;52.758;5.076;2022-09-09T09:26:52;9.25;;;3.13;;
74162;SDS011;62515;52.758;5.076;2022-09-09T09:29:23;11.57;;;3.55;;
74162;SDS011;62515;52.758;5.076;2022-09-09T09:31:53;7.72;;;3.20;;
74162;SDS011;62515;52.758;5.076;2022-09-09T09:34:23;9.57;;;3.50;;
74162;SDS011;62515;52.758;5.076;2022-09-09T09:36:53;8.95;;;3.70;;
74162;SDS011;62515;52.758;5.076;2022-09-09T09:39:24;11.40;;;3.95;;
74162;SDS011;62515;52.758;5.076;2022-09-09T09:42:15;5.85;;;3.38;;
74162;SDS011;62515;52.758;5.076;2022-09-09T09:47:21;8.27;;;3.58;;
74162;SDS011;62515;52.758;5.076;2022-09-09T09:50:16;12.07;;;3.63;;
74162;SDS011;62515;52.758;5.076;2022-09-09T09:52:53;8.00;;;3.88;;
74162;SDS011;62515;52.758;5.076;2022-09-09T09:55:22;5.90;;;3.38;;
74162;SDS011;62515;52.758;5.076;2022-09-09T09:57:50;8.55;;;3.40;;
74162;SDS011;62515;52.758;5.076;2022-09-09T10:00:21;7.43;;;3.22;;
74162;SDS011;62515;52.758;5.076;2022-09-09T10:03:00;10.50;;;3.55;;
74162;SDS011;62515;52.758;5.076;2022-09-09T10:05:32;6.10;;;3.63;;
74162;SDS011;62515;52.758;5.076;2022-09-09T10:08:10;7.28;;;3.25;;
74162;SDS011;62515;52.758;5.076;2022-09-09T10:10:49;6.97;;;3.00;;
74162;SDS011;62515;52.758;5.076;2022-09-09T10:13:25;13.30;;;5.32;;
74162;SDS011;62515;52.758;5.076;2022-09-09T10:16:05;9.38;;;3.97;;
74162;SDS011;62515;52.758;5.076;2022-09-09T10:18:45;9.43;;;3.92;;
74162;SDS011;62515;52.758;5.076;2022-09-09T10:21:29;6.35;;;4.10;;
74162;SDS011;62515;52.758;5.076;2022-09-09T10:24:18;10.45;;;4.18;;
74162;SDS011;62515;52.758;5.076;2022-09-09T10:27:05;7.70;;;3.92;;
74162;SDS011;62515;52.758;5.076;2022-09-09T10:30:04;9.02;;;4.00;;
74162;SDS011;62515;52.758;5.076;2022-09-09T10:32:40;8.05;;;3.35;;
74162;SDS011;62515;52.758;5.076;2022-09-09T10:35:12;5.65;;;3.20;;
74162;SDS011;62515;52.758;5.076;2022-09-09T10:37:55;12.48;;;4.20;;
74162;SDS011;62515;52.758;5.076;2022-09-09T10:40:37;11.77;;;3.90;;
74162;SDS011;62515;52.758;5.076;2022-09-09T10:43:11;6.45;;;3.28;;
74162;SDS011;62515;52.758;5.076;2022-09-09T10:45:47;7.30;;;3.22;;
74162;SDS011;62515;52.758;5.076;2022-09-09T10:48:30;13.07;;;3.20;;
74162;SDS011;62515;52.758;5.076;2022-09-09T10:51:10;8.75;;;3.40;;
74162;SDS011;62515;52.758;5.076;2022-09-09T10:53:51;12.15;;;3.88;;
74162;SDS011;62515;52.758;5.076;2022-09-09T10:56:26;8.23;;;3.20;;
74162;SDS011;62515;52.758;5.076;2022-09-09T10:58:56;10.55;;;4.40;;
74162;SDS011;62515;52.758;5.076;2022-09-09T11:01:29;8.38;;;3.47;;
74162;SDS011;62515;52.758;5.076;2022-09-09T11:04:05;8.68;;;3.85;;
74162;SDS011;62515;52.758;5.076;2022-09-09T11:06:39;9.52;;;3.63;;
74162;SDS011;62515;52.758;5.076;2022-09-09T11:09:12;10.98;;;3.75;;
74162;SDS011;62515;52.758;5.076;2022-09-09T11:11:44;8.57;;;3.15;;
74162;SDS011;62515;52.758;5.076;2022-09-09T11:14:18;10.02;;;3.38;;
74162;SDS011;62515;52.758;5.076;2022-09-09T11:16:49;6.07;;;3.20;;
74162;SDS011;62515;52.758;5.076;2022-09-09T11:19:22;9.23;;;3.47;;
74162;SDS011;62515;52.758;5.076;2022-09-09T11:21:53;6.80;;;3.03;;
74162;SDS011;62515;52.758;5.076;2022-09-09T11:24:25;10.15;;;3.33;;
74162;SDS011;62515;52.758;5.076;2022-09-09T11:26:58;11.48;;;3.95;;
74162;SDS011;62515;52.758;5.076;2022-09-09T11:32:37;6.10;;;2.75;;
74162;SDS011;62515;52.758;5.076;2022-09-09T11:35:44;10.57;;;2.97;;
74162;SDS011;62515;52.758;5.076;2022-09-09T11:38:19;12.80;;;3.10;;
74162;SDS011;62515;52.758;5.076;2022-09-09T11:40:56;8.77;;;2.90;;
74162;SDS011;62515;52.758;5.076;2022-09-09T11:43:27;10.60;;;2.30;;
74162;SDS011;62515;52.758;5.076;2022-09-09T11:45:58;5.95;;;2.47;;
74162;SDS011;62515;52.758;5.076;2022-09-09T11:48:29;6.70;;;2.53;;
74162;SDS011;62515;52.758;5.076;2022-09-09T11:51:02;6.40;;;1.92;;
74162;SDS011;62515;52.758;5.076;2022-09-09T11:53:31;7.10;;;1.88;;
74162;SDS011;62515;52.758;5.076;2022-09-09T11:59:05;6.88;;;2.10;;
74162;SDS011;62515;52.758;5.076;2022-09-09T12:01:34;9.57;;;2.95;;
74162;SDS011;62515;52.758;5.076;2022-09-09T12:04:09;6.65;;;2.30;;
74162;SDS011;62515;52.758;5.076;2022-09-09T12:07:03;10.68;;;3.10;;
74162;SDS011;62515;52.758;5.076;2022-09-09T12:09:43;5.55;;;2.75;;
74162;SDS011;62515;52.758;5.076;2022-09-09T12:12:32;4.82;;;2.45;;
74162;SDS011;62515;52.758;5.076;2022-09-09T12:15:02;4.05;;;2.30;;
74162;SDS011;62515;52.758;5.076;2022-09-09T12:17:44;8.20;;;2.20;;
74162;SDS011;62515;52.758;5.076;2022-09-09T12:20:14;14.35;;;2.78;;
74162;SDS011;62515;52.758;5.076;2022-09-09T12:22:48;6.07;;;2.05;;
74162;SDS011;62515;52.758;5.076;2022-09-09T12:25:26;12.48;;;2.60;;
74162;SDS011;62515;52.758;5.076;2022-09-09T12:28:04;6.07;;;2.00;;
74162;SDS011;62515;52.758;5.076;2022-09-09T12:30:37;9.32;;;2.40;;
74162;SDS011;62515;52.758;5.076;2022-09-09T12:33:16;5.07;;;2.30;;
74162;SDS011;62515;52.758;5.076;2022-09-09T12:35:45;7.38;;;2.05;;
74162;SDS011;62515;52.758;5.076;2022-09-09T12:38:20;5.03;;;2.03;;
74162;SDS011;62515;52.758;5.076;2022-09-09T12:40:53;6.57;;;2.30;;
74162;SDS011;62515;52.758;5.076;2022-09-09T12:43:22;5.47;;;1.80;;
74162;SDS011;62515;52.758;5.076;2022-09-09T12:45:50;3.80;;;2.00;;
74162;SDS011;62515;52.758;5.076;2022-09-09T12:48:27;5.18;;;1.85;;
74162;SDS011;62515;52.758;5.076;2022-09-09T12:50:57;5.93;;;1.90;;
74162;SDS011;62515;52.758;5.076;2022-09-09T12:53:29;3.67;;;1.42;;
74162;SDS011;62515;52.758;5.076;2022-09-09T12:55:59;3.13;;;1.60;;
74162;SDS011;62515;52.758;5.076;2022-09-09T12:58:29;5.55;;;1.88;;
74162;SDS011;62515;52.758;5.076;2022-09-09T13:01:00;5.13;;;1.70;;
74162;SDS011;62515;52.758;5.076;2022-09-09T13:03:31;3.88;;;1.58;;
74162;SDS011;62515;52.758;5.076;2022-09-09T13:06:10;4.35;;;1.70;;
74162;SDS011;62515;52.758;5.076;2022-09-09T13:08:39;5.47;;;1.52;;
74162;SDS011;62515;52.758;5.076;2022-09-09T13:11:07;3.92;;;1.58;;
74162;SDS011;62515;52.758;5.076;2022-09-09T13:13:39;3.40;;;1.25;;
74162;SDS011;62515;52.758;5.076;2022-09-09T13:16:17;2.03;;;1.23;;
74162;SDS011;62515;52.758;5.076;2022-09-09T13:18:47;4.35;;;1.50;;
74162;SDS011;62515;52.758;5.076;2022-09-09T13:21:14;3.40;;;1.20;;
74162;SDS011;62515;52.758;5.076;2022-09-09T13:23:42;3.78;;;1.30;;
74162;SDS011;62515;52.758;5.076;2022-09-09T13:26:20;3.90;;;1.52;;
74162;SDS011;62515;52.758;5.076;2022-09-09T13:28:49;5.60;;;1.70;;
74162;SDS011;62515;52.758;5.076;2022-09-09T13:31:20;5.70;;;2.33;;
74162;SDS011;62515;52.758;5.076;2022-09-09T13:33:49;6.97;;;2.78;;
74162;SDS011;62515;52.758;5.076;2022-09-09T13:36:16;7.28;;;2.20;;
74162;SDS011;62515;52.758;5.076;2022-09-09T13:38:57;6.55;;;2.20;;
74162;SDS011;62515;52.758;5.076;2022-09-09T13:41:28;6.00;;;2.28;;
74162;SDS011;62515;52.758;5.076;2022-09-09T13:43:56;4.85;;;2.50;;
74162;SDS011;62515;52.758;5.076;2022-09-09T13:46:25;4.80;;;2.33;;
74162;SDS011;62515;52.758;5.076;2022-09-09T13:48:56;5.68;;;2.22;;
74162;SDS011;62515;52.758;5.076;2022-09-09T13:51:33;5.93;;;2.65;;
74162;SDS011;62515;52.758;5.076;2022-09-09T13:54:03;7.20;;;2.90;;
74162;SDS011;62515;52.758;5.076;2022-09-09T13:56:32;4.07;;;2.10;;
74162;SDS011;62515;52.758;5.076;2022-09-09T13:58:59;3.92;;;2.22;;
74162;SDS011;62515;52.758;5.076;2022-09-09T14:01:26;5.03;;;2.33;;
74162;SDS011;62515;52.758;5.076;2022-09-09T14:03:55;5.03;;;2.42;;
74162;SDS011;62515;52.758;5.076;2022-09-09T14:06:22;5.25;;;2.35;;
74162;SDS011;62515;52.758;5.076;2022-09-09T14:08:49;6.47;;;2.33;;
74162;SDS011;62515;52.758;5.076;2022-09-09T14:11:18;5.28;;;2.30;;
74162;SDS011;62515;52.758;5.076;2022-09-09T14:13:45;4.43;;;1.88;;
74162;SDS011;62515;52.758;5.076;2022-09-09T14:16:13;3.92;;;2.03;;
74162;SDS011;62515;52.758;5.076;2022-09-09T14:18:40;6.60;;;2.00;;
74162;SDS011;62515;52.758;5.076;2022-09-09T14:21:07;3.78;;;2.03;;
74162;SDS011;62515;52.758;5.076;2022-09-09T14:23:35;4.40;;;2.40;;
74162;SDS011;62515;52.758;5.076;2022-09-09T14:26:02;8.18;;;2.67;;
74162;SDS011;62515;52.758;5.076;2022-09-09T14:28:30;5.10;;;2.47;;
74162;SDS011;62515;52.758;5.076;2022-09-09T14:31:17;4.55;;;2.20;;
74162;SDS011;62515;52.758;5.076;2022-09-09T14:33:44;5.82;;;2.30;;
74162;SDS011;62515;52.758;5.076;2022-09-09T14:36:11;5.60;;;2.13;;
74162;SDS011;62515;52.758;5.076;2022-09-09T14:38:39;4.45;;;2.63;;
74162;SDS011;62515;52.758;5.076;2022-09-09T14:41:06;3.97;;;1.75;;
74162;SDS011;62515;52.758;5.076;2022-09-09T14:43:35;3.72;;;1.73;;
74162;SDS011;62515;52.758;5.076;2022-09-09T14:46:04;4.30;;;1.45;;
74162;SDS011;62515;52.758;5.076;2022-09-09T14:48:32;2.33;;;1.42;;
74162;SDS011;62515;52.758;5.076;2022-09-09T14:51:04;6.00;;;1.65;;
74162;SDS011;62515;52.758;5.076;2022-09-09T14:53:32;4.20;;;1.67;;
74162;SDS011;62515;52.758;5.076;2022-09-09T14:56:02;4.55;;;1.63;;
74162;SDS011;62515;52.758;5.076;2022-09-09T14:58:31;3.42;;;1.80;;
74162;SDS011;62515;52.758;5.076;2022-09-09T15:01:03;4.32;;;1.77;;
74162;SDS011;62515;52.758;5.076;2022-09-09T15:03:31;3.38;;;1.83;;
74162;SDS011;62515;52.758;5.076;2022-09-09T15:05:58;6.63;;;2.13;;
74162;SDS011;62515;52.758;5.076;2022-09-09T15:08:31;3.08;;;1.90;;
74162;SDS011;62515;52.758;5.076;2022-09-09T15:10:59;4.97;;;2.03;;
74162;SDS011;62515;52.758;5.076;2022-09-09T15:13:26;7.63;;;2.10;;
74162;SDS011;62515;52.758;5.076;2022-09-09T15:15:53;4.75;;;2.00;;
74162;SDS011;62515;52.758;5.076;2022-09-09T15:18:22;4.55;;;2.10;;
74162;SDS011;62515;52.758;5.076;2022-09-09T15:20:49;3.72;;;1.83;;
74162;SDS011;62515;52.758;5.076;2022-09-09T15:23:15;5.30;;;1.95;;
74162;SDS011;62515;52.758;5.076;2022-09-09T15:25:52;5.18;;;2.00;;
74162;SDS011;62515;52.758;5.076;2022-09-09T15:28:20;3.28;;;1.92;;
74162;SDS011;62515;52.758;5.076;2022-09-09T15:30:48;2.70;;;1.70;;
74162;SDS011;62515;52.758;5.076;2022-09-09T15:33:15;5.25;;;1.73;;